NCAR-RAP Real-Time Weather Data

Output produced by METARs form (08 May 2021  00:43 UTC)
found at http://weather.rap.ucar.edu/surface/
 
KMCI 072353Z 22006KT 10SM OVC070 18/07 A3000 RMK AO2 SLP157 60000 T01780072 10228 20178 56015
KMCI 072253Z 21005KT 10SM OVC070 18/08 A3001 RMK AO2 SLP161 T01830078
KMCI 072152Z 21005KT 10SM OVC075 19/07 A3003 RMK AO2 SLP166 T01940067
KMCI 072053Z 20006KT 10SM OVC090 21/06 A3005 RMK AO2 SLP173 60000 T02110061 56026
KMCI 071953Z 21009KT 10SM OVC085 21/06 A3008 RMK AO2 SLP181 T02110061
KMCI 071853Z 30008KT 6SM HZ OVC085 22/05 A3010 RMK AO2 RAB03E12 SLP188 P0000 T02220050
KMCI 071753Z 24010KT 10SM FEW030 SCT075 OVC095 20/04 A3013 RMK AO2 RAB35E44 SLP198 P0000 60000 T02000039 10222 20094
KMCI 071653Z 25011G21KT 8SM BKN090 BKN170 22/06 A3014 RMK AO2 SLP202 T02220056
KMCI 071553Z 22010KT 9SM BKN095 18/06 A3014 RMK AO2 SLP204 T01780056 $
KMCI 071453Z 25010KT 10SM SCT110 SCT180 17/04 A3015 RMK AO2 SLP205 T01720044 50003
KMCI 071353Z 23010KT 10SM FEW110 SCT180 16/04 A3015 RMK AO2 SLP207 T01560039 $
KMCI 071253Z 23007KT 10SM SCT110 SCT180 13/03 A3015 RMK AO2 SLP208 T01280033 $
KMCI 071153Z 23008KT 10SM FEW130 09/02 A3014 RMK AO2 SLP204 T00940022 10106 20061 53002 $
KMCI 071053Z 22006KT 6SM HZ CLR 07/02 A3013 RMK AO2 SLP201 T00720017 $
KMCI 070953Z 23008KT 10SM CLR 08/02 A3013 RMK AO2 SLP202 T00780017 $